createdAt,value
2019-04-25T03:51:45.938Z,7.57
2019-04-25T03:54:14.521Z,7.13
2019-04-25T03:56:53.223Z,7.10
2019-04-25T03:59:14.198Z,6.80
2019-04-25T04:01:57.441Z,6.73
2019-04-25T04:04:25.446Z,6.93
2019-04-25T04:06:53.857Z,7.40
2019-04-25T04:09:21.932Z,7.63
2019-04-25T04:11:49.931Z,7.60
2019-04-25T04:14:18.139Z,6.83
2019-04-25T04:17:05.183Z,7.27
2019-04-25T04:19:39.525Z,7.57
2019-04-25T04:22:15.423Z,7.93
2019-04-25T04:24:48.223Z,8.23
2019-04-25T04:27:18.089Z,8.33
2019-04-25T04:29:48.925Z,7.40
2019-04-25T04:32:17.406Z,7.20
2019-04-25T04:34:45.647Z,5.87
2019-04-25T04:37:14.821Z,6.87
2019-04-25T04:39:59.010Z,6.03
2019-04-25T04:42:27.026Z,6.13
2019-04-25T04:44:55.146Z,6.43
2019-04-25T04:47:23.682Z,6.73
2019-04-25T04:49:51.783Z,7.20
2019-04-25T04:52:19.829Z,6.40
2019-04-25T04:54:47.945Z,6.50
2019-04-25T04:57:26.548Z,6.10
2019-04-25T04:59:45.621Z,6.73
2019-04-25T05:02:33.382Z,6.33
2019-04-25T05:08:29.969Z,7.80
2019-04-25T05:10:59.018Z,7.97
2019-04-25T05:13:27.110Z,7.90
2019-04-25T05:15:55.150Z,7.70
2019-04-25T05:18:36.538Z,8.00
2019-04-25T05:20:54.267Z,7.27
2019-04-25T05:23:23.422Z,7.87
2019-04-25T05:25:55.729Z,7.33
2019-04-25T05:28:24.548Z,6.77
2019-04-25T05:31:25.513Z,7.40
2019-04-25T05:33:53.709Z,7.37
2019-04-25T05:36:21.874Z,7.27
2019-04-25T05:38:51.472Z,7.00
2019-04-25T05:41:43.995Z,6.97
2019-04-25T05:44:11.938Z,6.07
2019-04-25T05:46:40.062Z,6.33
2019-04-25T05:49:08.048Z,6.63
2019-04-25T05:51:36.412Z,5.97
2019-04-25T05:54:04.435Z,5.57
2019-04-25T05:56:33.753Z,4.70
2019-04-25T05:59:05.532Z,4.80
2019-04-25T06:01:35.809Z,4.73
2019-04-25T06:04:38.643Z,4.33
2019-04-25T06:07:06.680Z,5.03
2019-04-25T06:09:54.422Z,4.90
2019-04-25T06:12:41.257Z,4.73
2019-04-25T06:15:09.368Z,3.93
2019-04-25T06:17:56.410Z,3.70
2019-04-25T06:20:25.793Z,3.33
2019-04-25T06:23:00.667Z,3.10
2019-04-25T06:25:32.711Z,3.30
2019-04-25T06:28:13.694Z,3.33
2019-04-25T06:30:32.458Z,2.80
2019-04-25T06:33:00.555Z,2.97
2019-04-25T06:35:30.907Z,3.13
2019-04-25T06:37:59.036Z,2.67
2019-04-25T06:40:30.727Z,2.50
2019-04-25T06:42:58.912Z,3.17
2019-04-25T06:45:44.671Z,2.50
2019-04-25T06:51:41.443Z,2.40
2019-04-25T06:54:09.676Z,2.27
2019-04-25T06:56:38.039Z,2.33
2019-04-25T06:59:41.430Z,2.27
2019-04-25T07:02:09.227Z,2.93
2019-04-25T07:04:45.619Z,3.10
2019-04-25T07:07:14.986Z,2.60
2019-04-25T07:12:54.421Z,2.33
2019-04-25T07:15:24.719Z,2.27
2019-04-25T07:17:53.981Z,2.70
2019-04-25T07:20:24.677Z,2.27
2019-04-25T07:22:53.666Z,1.70
2019-04-25T07:25:25.190Z,1.70
2019-04-25T07:28:22.233Z,1.93
2019-04-25T07:30:58.313Z,1.53
2019-04-25T07:33:36.510Z,2.00
2019-04-25T07:36:05.708Z,2.40
2019-04-25T07:38:34.923Z,1.90
2019-04-25T07:41:03.557Z,1.90
2019-04-25T07:43:33.721Z,1.97
2019-04-25T07:46:03.273Z,1.97
2019-04-25T07:48:33.688Z,1.27
2019-04-25T07:51:01.800Z,1.23
2019-04-25T07:53:30.600Z,1.00
2019-04-25T07:55:59.649Z,1.13
2019-04-25T07:58:49.256Z,1.00
2019-04-25T08:01:10.593Z,0.93
2019-04-25T08:03:38.612Z,1.20
2019-04-25T08:06:06.675Z,1.20
2019-04-25T08:08:34.963Z,1.10
2019-04-25T08:11:05.012Z,1.37
2019-04-25T08:13:48.138Z,1.80
2019-04-25T08:16:17.610Z,1.20
2019-04-25T08:18:46.505Z,1.60
2019-04-25T08:21:15.335Z,1.47
2019-04-25T08:23:43.758Z,1.03
2019-04-25T08:26:14.283Z,1.50
2019-04-25T08:28:51.929Z,0.90
2019-04-25T08:31:13.619Z,1.30
2019-04-25T08:33:47.070Z,0.90
2019-04-25T08:36:15.503Z,1.00
2019-04-25T08:38:44.691Z,1.20
2019-04-25T08:41:14.843Z,1.37
2019-04-25T08:43:44.961Z,0.67
2019-04-25T08:46:13.950Z,0.60
2019-04-25T08:49:09.350Z,0.90
2019-04-25T08:51:38.863Z,1.10
2019-04-25T08:54:24.802Z,1.60
2019-04-25T08:56:54.441Z,0.60
2019-04-25T08:59:44.885Z,0.90
2019-04-25T09:02:17.199Z,0.97
2019-04-25T09:05:04.288Z,0.70
2019-04-25T09:07:35.423Z,0.50
2019-04-25T09:10:03.561Z,0.63
2019-04-25T09:12:32.682Z,0.80
2019-04-25T09:15:04.076Z,0.90
2019-04-25T09:17:32.949Z,0.70
2019-04-25T09:20:03.616Z,0.70
2019-04-25T09:22:31.895Z,0.80
2019-04-25T09:25:00.077Z,0.87
2019-04-25T09:27:29.787Z,0.60
2019-04-25T09:29:57.837Z,0.80
2019-04-25T09:32:25.914Z,1.10
2019-04-25T09:34:55.451Z,1.00
2019-04-25T09:37:26.632Z,0.60
2019-04-25T09:40:05.842Z,1.10
2019-04-25T09:42:35.641Z,1.00
2019-04-25T09:45:09.759Z,0.70
2019-04-25T09:47:39.889Z,1.07
2019-04-25T09:52:47.046Z,1.07
2019-04-25T09:58:44.635Z,0.90
2019-04-25T10:01:13.997Z,0.93
2019-04-25T10:03:45.647Z,1.00
2019-04-25T10:06:15.541Z,1.07
2019-04-25T10:08:45.095Z,2.43
2019-04-25T10:11:14.800Z,1.27
2019-04-25T10:13:45.435Z,1.50
2019-04-25T10:16:16.372Z,1.30
2019-04-25T10:18:44.930Z,1.30
2019-04-25T10:21:14.675Z,1.20
2019-04-25T10:23:45.004Z,1.27
2019-04-25T10:26:15.285Z,1.20
2019-04-25T10:28:44.145Z,1.50
2019-04-25T10:31:13.733Z,1.30
2019-04-25T10:33:45.284Z,2.27
2019-04-25T10:36:14.328Z,2.30
2019-04-25T10:38:44.386Z,2.60
2019-04-25T10:41:14.096Z,1.20
2019-04-25T10:43:43.911Z,2.00
2019-04-25T10:46:14.092Z,1.40
2019-04-25T10:48:42.576Z,1.77
2019-04-25T10:51:13.889Z,2.10
2019-04-25T10:53:45.126Z,1.37
2019-04-25T10:56:14.161Z,1.70
2019-04-25T10:58:43.987Z,1.30
2019-04-25T11:01:15.080Z,2.17
2019-04-25T11:04:07.475Z,1.80
2019-04-25T11:06:36.346Z,1.50
2019-04-25T11:09:06.462Z,0.93
2019-04-25T11:11:34.893Z,1.20
2019-04-25T11:14:03.394Z,1.97
2019-04-25T11:17:16.548Z,1.33
2019-04-25T11:19:44.683Z,1.30
2019-04-25T11:22:15.598Z,1.43
2019-04-25T11:24:44.423Z,1.50
2019-04-25T11:27:13.519Z,1.20
2019-04-25T11:29:42.523Z,1.40
2019-04-25T11:32:15.093Z,1.50
2019-04-25T11:34:44.874Z,2.40
2019-04-25T11:37:14.684Z,2.33
2019-04-25T11:39:59.850Z,1.10
2019-04-25T11:42:28.033Z,1.17
2019-04-25T11:44:56.120Z,1.13
2019-04-25T11:47:24.628Z,1.03
2019-04-25T11:49:54.193Z,1.53
2019-04-25T11:52:28.326Z,1.40
2019-04-25T11:54:54.573Z,1.23
2019-04-25T12:00:45.102Z,1.00
2019-04-25T12:03:14.322Z,1.20
2019-04-25T12:06:06.535Z,1.73
2019-04-25T12:08:34.637Z,1.23
2019-04-25T12:11:06.029Z,1.10
2019-04-25T12:13:34.567Z,1.07
2019-04-25T12:16:04.160Z,1.10
2019-04-25T12:18:33.897Z,1.17
2019-04-25T12:21:04.212Z,1.00
2019-04-25T12:23:33.975Z,0.90
2019-04-25T12:26:03.857Z,0.90
2019-04-25T12:28:35.417Z,1.13
2019-04-25T12:31:03.546Z,1.00
2019-04-25T12:33:31.596Z,0.87
2019-04-25T12:36:00.060Z,1.30
2019-04-25T12:38:30.377Z,1.30
2019-04-25T12:41:13.127Z,1.13
2019-04-25T12:43:45.770Z,1.23
2019-04-25T12:46:20.325Z,1.50
2019-04-25T12:49:09.302Z,1.20
2019-04-25T12:51:37.502Z,0.80
2019-04-25T12:54:24.642Z,1.10
2019-04-25T12:56:57.756Z,1.00
2019-04-25T12:59:28.538Z,1.00
2019-04-25T13:01:57.447Z,1.30
2019-04-25T13:04:25.725Z,0.97
2019-04-25T13:06:54.482Z,1.10
2019-04-25T13:09:27.170Z,1.10
2019-04-25T13:12:27.320Z,1.30
2019-04-25T13:22:46.695Z,1.20
2019-04-25T13:25:17.507Z,1.20
2019-04-25T13:31:04.287Z,1.00
2019-04-25T13:33:43.731Z,1.17
2019-04-25T13:36:14.001Z,1.00
2019-04-25T13:38:43.630Z,1.47
2019-04-25T13:41:11.921Z,1.10
2019-04-25T13:43:40.016Z,0.90
2019-04-25T13:46:13.866Z,0.87
2019-04-25T13:48:44.977Z,0.90
2019-04-25T13:51:16.098Z,3.10
2019-04-25T13:53:44.928Z,1.60
2019-04-25T13:56:14.836Z,1.90
2019-04-25T13:58:50.162Z,2.00
2019-04-25T14:01:27.612Z,1.23
2019-04-25T14:03:58.917Z,2.90
2019-04-25T14:06:30.674Z,2.43
2019-04-25T14:08:58.762Z,1.50
2019-04-25T14:12:04.038Z,1.40
2019-04-25T14:14:34.002Z,1.00
2019-04-25T14:17:57.468Z,1.20
2019-04-25T14:20:35.483Z,0.70
2019-04-25T14:23:05.105Z,0.90
2019-04-25T14:25:34.036Z,1.33
2019-04-25T14:28:05.357Z,1.17
2019-04-25T14:30:34.232Z,1.90
2019-04-25T14:33:03.479Z,1.73
2019-04-25T14:35:34.051Z,1.47
2019-04-25T14:41:00.329Z,0.80
2019-04-25T14:46:38.379Z,1.07
2019-04-25T14:49:06.725Z,1.00
2019-04-25T14:51:34.870Z,1.30
2019-04-25T14:54:05.095Z,0.90
2019-04-25T14:56:48.667Z,1.10
2019-04-25T14:59:16.783Z,2.20
2019-04-25T15:01:45.405Z,1.80
2019-04-25T15:04:14.033Z,1.90
2019-04-25T15:06:42.369Z,1.30
2019-04-25T15:09:10.746Z,1.37
2019-04-25T15:11:39.027Z,1.60
2019-04-25T15:14:07.487Z,1.20
2019-04-25T15:16:35.892Z,1.90
2019-04-25T15:19:07.739Z,1.50
2019-04-25T15:21:35.993Z,2.23
2019-04-25T15:24:04.313Z,2.87
2019-04-25T15:26:33.256Z,1.40
2019-04-25T15:29:03.542Z,9.23
2019-04-25T15:31:32.202Z,2.20
2019-04-25T15:34:02.412Z,7.97
2019-04-25T15:36:37.778Z,5.67
2019-04-25T15:39:41.168Z,2.70
2019-04-25T15:42:34.037Z,1.40
2019-04-25T15:45:31.194Z,2.20
2019-04-25T15:48:04.638Z,3.10
2019-04-25T15:50:34.088Z,3.17
2019-04-25T15:53:06.304Z,1.80
2019-04-25T15:55:41.058Z,1.00
2019-04-25T15:58:15.898Z,1.73
2019-04-25T16:00:44.523Z,1.60
2019-04-25T16:03:13.794Z,1.27
2019-04-25T16:05:42.249Z,2.33
2019-04-25T16:08:16.620Z,1.87
2019-04-25T16:10:44.591Z,7.40
2019-04-25T16:13:17.546Z,3.83
2019-04-25T16:15:45.819Z,4.73
2019-04-25T16:18:14.148Z,1.73
2019-04-25T16:20:43.116Z,2.50
2019-04-25T16:23:11.771Z,1.10
2019-04-25T16:25:41.275Z,1.20
2019-04-25T16:28:09.786Z,1.43
2019-04-25T16:30:40.924Z,4.57
2019-04-25T16:33:09.196Z,6.00
2019-04-25T16:35:37.847Z,3.40
2019-04-25T16:38:06.917Z,2.60
2019-04-25T16:40:46.427Z,5.53
2019-04-25T16:43:18.284Z,5.53
2019-04-25T16:45:48.384Z,2.10
2019-04-25T16:48:20.080Z,2.80
2019-04-25T16:50:54.813Z,2.20
2019-04-25T16:53:31.417Z,2.47
2019-04-25T16:55:59.300Z,2.60
2019-04-25T16:58:29.645Z,3.40
2019-04-25T17:01:04.962Z,1.90
2019-04-25T17:03:35.359Z,8.00
2019-04-25T17:06:05.559Z,3.60
2019-04-25T17:08:38.227Z,4.03
2019-04-25T17:11:12.060Z,4.03
2019-04-25T17:13:57.208Z,2.77
2019-04-25T17:16:50.844Z,3.33
2019-04-25T17:19:28.257Z,4.30
2019-04-25T17:22:01.687Z,5.87
2019-04-25T17:24:34.625Z,4.60
2019-04-25T17:27:03.328Z,2.40
2019-04-25T17:29:40.620Z,2.67
2019-04-25T17:32:22.409Z,1.60
2019-04-25T17:35:03.107Z,4.80
2019-04-25T17:37:38.515Z,3.27
2019-04-25T17:40:18.009Z,7.00
2019-04-25T17:42:46.089Z,3.50
2019-04-25T17:45:18.815Z,4.90
2019-04-25T17:48:06.347Z,6.43
2019-04-25T17:50:37.730Z,3.13
2019-04-25T17:53:06.545Z,2.10
2019-04-25T17:55:37.328Z,2.03
2019-04-25T17:58:11.222Z,5.03
2019-04-25T18:00:42.044Z,4.53
2019-04-25T18:06:36.085Z,2.67
2019-04-25T18:09:06.261Z,3.23
2019-04-25T18:11:36.023Z,4.23
2019-04-25T18:14:23.580Z,2.63
2019-04-25T18:16:57.567Z,2.10
2019-04-25T18:19:44.744Z,2.90
2019-04-25T18:22:26.416Z,7.93
2019-04-25T18:25:23.569Z,6.00
2019-04-25T18:28:13.420Z,3.90
2019-04-25T18:30:53.264Z,2.60
2019-04-25T18:33:30.598Z,1.50
2019-04-25T18:36:25.085Z,2.43
2019-04-25T18:39:04.815Z,2.43
2019-04-25T18:41:41.841Z,4.43
2019-04-25T18:44:15.444Z,4.10
2019-04-25T18:46:45.452Z,4.03
2019-04-25T18:49:19.377Z,2.97
2019-04-25T18:51:57.487Z,5.00
2019-04-25T18:58:01.610Z,5.10
2019-04-25T19:01:00.546Z,9.77
2019-04-25T19:03:46.795Z,10.63
2019-04-25T19:06:18.856Z,5.93
2019-04-25T19:08:48.043Z,3.50
2019-04-25T19:11:25.970Z,4.30
2019-04-25T19:13:55.628Z,1.90
2019-04-25T19:16:26.145Z,2.43
2019-04-25T19:18:54.405Z,1.43
2019-04-25T19:21:52.955Z,1.10
2019-04-25T19:24:21.100Z,1.40
2019-04-25T19:26:49.180Z,1.60
2019-04-25T19:32:30.435Z,1.20
2019-04-25T19:35:00.343Z,1.30
2019-04-25T19:37:28.446Z,1.30
2019-04-25T19:40:30.622Z,1.50
2019-04-25T19:43:02.457Z,1.20
2019-04-25T19:45:33.234Z,1.13
2019-04-25T19:48:00.328Z,1.80
2019-04-25T19:50:28.456Z,1.20
2019-04-25T19:52:56.522Z,1.10
2019-04-25T19:55:24.598Z,1.40
2019-04-25T19:57:52.702Z,1.50
2019-04-25T20:00:21.196Z,1.23
2019-04-25T20:03:14.283Z,1.20
2019-04-25T20:06:01.673Z,1.13
2019-04-25T20:08:34.962Z,1.10
2019-04-25T20:11:28.070Z,0.90
2019-04-25T20:13:56.199Z,1.10
2019-04-25T20:16:24.322Z,1.23
2019-04-25T20:18:52.386Z,1.30
2019-04-25T20:21:20.511Z,1.00
2019-04-25T20:23:48.709Z,1.40
2019-04-25T20:26:16.791Z,0.90
2019-04-25T20:28:44.980Z,1.50
2019-04-25T20:31:13.006Z,1.47
2019-04-25T20:33:41.118Z,1.27
2019-04-25T20:36:17.700Z,0.90
2019-04-25T20:38:38.970Z,1.20
2019-04-25T20:41:07.127Z,1.27
2019-04-25T20:43:35.236Z,1.23
2019-04-25T20:46:03.281Z,1.27
2019-04-25T20:48:31.372Z,1.00
2019-04-25T20:50:59.707Z,1.20
2019-04-25T20:53:27.836Z,1.03
2019-04-25T20:55:55.917Z,1.10
2019-04-25T20:58:23.993Z,0.97
2019-04-25T21:00:54.691Z,1.30
2019-04-25T21:03:22.898Z,1.10
2019-04-25T21:09:02.214Z,0.80
2019-04-25T21:11:30.325Z,0.80
2019-04-25T21:14:16.429Z,1.37
2019-04-25T21:16:56.416Z,0.90
2019-04-25T21:19:29.882Z,1.10
2019-04-25T21:21:58.712Z,0.83
2019-04-25T21:24:26.947Z,1.33
2019-04-25T21:26:54.990Z,1.00
2019-04-25T21:29:23.090Z,0.80
2019-04-25T21:31:51.318Z,1.70
2019-04-25T21:34:25.878Z,0.93
2019-04-25T21:36:49.046Z,1.00
2019-04-25T21:39:39.430Z,0.90
2019-04-25T21:42:29.825Z,1.00
2019-04-25T21:44:58.302Z,4.10
2019-04-25T21:47:26.448Z,0.87
2019-04-25T21:49:54.831Z,1.00
2019-04-25T21:52:23.281Z,1.00
2019-04-25T21:54:51.620Z,1.00
2019-04-25T21:57:21.075Z,0.80
2019-04-25T21:59:59.044Z,1.00
2019-04-25T22:02:19.939Z,2.13
2019-04-25T22:04:48.358Z,1.30
2019-04-25T22:07:16.724Z,1.50
2019-04-25T22:09:44.992Z,1.00
2019-04-25T22:12:14.548Z,2.60
2019-04-25T22:14:42.614Z,1.83
2019-04-25T22:17:10.776Z,2.03
2019-04-25T22:19:39.128Z,1.70
2019-04-25T22:22:07.651Z,1.27
2019-04-25T22:24:35.799Z,1.60
2019-04-25T22:27:07.356Z,1.60
2019-04-25T22:29:36.988Z,1.60
2019-04-25T22:32:23.525Z,1.23
2019-04-25T22:35:05.903Z,4.33
2019-04-25T22:37:33.933Z,2.93
2019-04-25T22:40:03.267Z,1.60
2019-04-25T22:42:31.353Z,2.20
2019-04-25T22:45:00.397Z,6.73
2019-04-25T22:47:28.617Z,3.70
2019-04-25T22:49:56.658Z,5.43
2019-04-25T22:52:24.795Z,5.60
2019-04-25T22:54:52.823Z,3.80
2019-04-25T22:57:21.029Z,2.20
2019-04-25T22:59:49.043Z,1.60
2019-04-25T23:02:32.517Z,1.23
2019-04-25T23:05:15.072Z,1.20
2019-04-25T23:07:39.789Z,1.27
2019-04-25T23:10:08.416Z,5.30
2019-04-25T23:12:36.730Z,1.63
2019-04-25T23:15:05.242Z,1.63
2019-04-25T23:17:33.266Z,1.27
2019-04-25T23:20:01.656Z,1.50
2019-04-25T23:22:29.702Z,1.20
2019-04-25T23:25:03.431Z,1.20
2019-04-25T23:28:07.797Z,1.20
2019-04-25T23:30:40.777Z,2.40
2019-04-25T23:33:08.758Z,2.27
2019-04-25T23:35:38.340Z,1.53
2019-04-25T23:38:07.133Z,2.10
2019-04-25T23:40:35.157Z,1.90
2019-04-25T23:43:03.468Z,1.87
2019-04-25T23:45:31.489Z,1.30
2019-04-25T23:47:59.482Z,1.10
2019-04-25T23:50:27.731Z,1.07
2019-04-25T23:52:55.714Z,1.40
2019-04-25T23:55:25.433Z,1.40
2019-04-25T23:57:53.462Z,2.73
